Time;durP1;ratioP1;P1;durP2;ratioP2;P2;SDS_P1;SDS_P2;PMS_P1;PMS_P2;Temp;Humidity;BMP_temperature;BMP_pressure;BME280_temperature;BME280_humidity;BME280_pressure;Samples;Min_cycle;Max_cycle;Signal;HPM_P1;HPM_P2
2022/10/07 00:01:39;;;;;;;13.32;4.03;;;9.70;99.90;;;;;;4950888;28;20089;-77
2022/10/07 00:04:05;;;;;;;11.35;3.50;;;9.80;99.90;;;;;;4949582;28;20230;-78
2022/10/07 00:06:30;;;;;;;11.32;3.50;;;9.70;99.90;;;;;;4949816;28;20125;-78
2022/10/07 00:08:56;;;;;;;9.48;3.33;;;9.70;99.90;;;;;;4965308;28;20043;-78
2022/10/07 00:11:25;;;;;;;12.23;3.60;;;9.70;99.90;;;;;;4953865;28;20042;-78
2022/10/07 00:13:57;;;;;;;10.70;4.20;;;9.70;99.90;;;;;;4948797;28;21097;-78
2022/10/07 00:16:26;;;;;;;12.23;3.85;;;9.70;99.90;;;;;;4934990;28;20062;-76
2022/10/07 00:18:56;;;;;;;15.20;3.92;;;9.70;99.90;;;;;;4946631;28;20039;-78
2022/10/07 00:21:23;;;;;;;11.10;3.78;;;9.60;99.90;;;;;;4936728;28;20070;-77
2022/10/07 00:23:48;;;;;;;12.88;3.90;;;9.60;99.90;;;;;;4961054;28;20077;-78
2022/10/07 00:26:20;;;;;;;12.63;4.10;;;9.60;99.90;;;;;;4947159;28;20039;-77
2022/10/07 00:28:45;;;;;;;12.93;4.28;;;9.50;99.90;;;;;;4952002;28;20034;-77
2022/10/07 00:31:33;;;;;;;17.45;4.00;;;9.50;99.90;;;;;;4930706;28;20516;-78
2022/10/07 00:33:59;;;;;;;13.43;4.30;;;9.50;99.90;;;;;;4950837;28;20386;-78
2022/10/07 00:36:27;;;;;;;11.75;4.25;;;9.40;99.90;;;;;;4944202;28;20041;-78
2022/10/07 00:38:55;;;;;;;14.90;4.53;;;9.40;99.90;;;;;;4931893;28;20071;-76
2022/10/07 00:41:35;;;;;;;16.40;4.80;;;9.40;99.90;;;;;;4947562;28;20501;-78
2022/10/07 00:44:26;;;;;;;14.75;4.70;;;9.40;99.90;;;;;;4948107;28;20042;-77
2022/10/07 00:46:54;;;;;;;12.70;4.25;;;9.30;99.90;;;;;;4950848;28;20538;-77
2022/10/07 00:49:20;;;;;;;14.88;4.60;;;9.30;99.90;;;;;;4952823;28;20042;-80
2022/10/07 00:51:49;;;;;;;15.00;4.35;;;9.30;99.90;;;;;;4950879;28;20129;-77
2022/10/07 00:54:16;;;;;;;16.95;4.55;;;9.30;99.90;;;;;;4967245;28;20047;-78
2022/10/07 00:56:42;;;;;;;9.18;4.40;;;9.30;99.90;;;;;;4954158;28;20042;-78
2022/10/07 00:59:08;;;;;;;11.73;4.63;;;9.30;99.90;;;;;;4953779;28;20042;-78
2022/10/07 01:01:34;;;;;;;11.68;4.22;;;9.30;99.90;;;;;;4948716;28;20050;-78
2022/10/07 01:04:00;;;;;;;11.40;4.18;;;9.30;99.90;;;;;;4950286;28;20042;-78
2022/10/07 01:06:25;;;;;;;15.38;4.28;;;9.30;99.90;;;;;;4934618;28;20047;-78
2022/10/07 01:08:52;;;;;;;10.85;4.72;;;9.30;99.90;;;;;;4946959;28;20122;-78
2022/10/07 01:11:36;;;;;;;15.88;4.50;;;9.30;99.90;;;;;;4951792;28;20905;-78
2022/10/07 01:14:10;;;;;;;14.45;4.65;;;9.30;99.90;;;;;;4949103;28;20067;-78
2022/10/07 01:16:46;;;;;;;9.85;4.47;;;9.30;99.90;;;;;;4948278;28;20039;-78
2022/10/07 01:19:44;;;;;;;12.05;5.05;;;9.30;99.90;;;;;;4936664;28;20090;-78
2022/10/07 01:22:18;;;;;;;11.65;4.40;;;9.30;99.90;;;;;;4957241;28;20137;-78
2022/10/07 01:25:00;;;;;;;15.82;4.85;;;9.30;99.90;;;;;;4952395;28;20071;-79
2022/10/07 01:27:27;;;;;;;15.15;4.72;;;9.30;99.90;;;;;;4949949;28;20038;-79
2022/10/07 01:29:57;;;;;;;12.80;4.40;;;9.30;99.90;;;;;;4953096;28;20043;-79
2022/10/07 01:32:32;;;;;;;14.40;4.78;;;9.30;99.90;;;;;;4951550;28;20126;-79
2022/10/07 01:34:59;;;;;;;12.35;4.50;;;9.30;99.90;;;;;;4951918;28;20054;-79
2022/10/07 01:37:30;;;;;;;15.70;4.50;;;9.30;99.90;;;;;;4953516;28;20046;-78
2022/10/07 01:40:01;;;;;;;11.57;4.25;;;9.30;99.90;;;;;;4934691;28;20109;-79
2022/10/07 01:42:28;;;;;;;14.70;5.13;;;9.30;99.90;;;;;;4953961;28;20691;-78
2022/10/07 01:44:56;;;;;;;15.38;4.53;;;9.20;99.90;;;;;;4971260;28;20043;-78
2022/10/07 01:47:24;;;;;;;15.65;4.88;;;9.30;99.90;;;;;;4953017;28;20394;-78
2022/10/07 01:49:49;;;;;;;13.40;4.55;;;9.20;99.90;;;;;;4949382;28;20047;-78
2022/10/07 01:52:41;;;;;;;15.00;4.75;;;9.20;99.90;;;;;;4950195;28;20065;-78
2022/10/07 01:55:50;;;;;;;11.65;4.32;;;9.20;99.90;;;;;;4952464;28;20050;-78
2022/10/07 01:58:25;;;;;;;11.07;4.38;;;9.20;99.90;;;;;;4939222;28;20456;-78
2022/10/07 02:01:27;;;;;;;15.63;4.55;;;9.20;99.90;;;;;;4944266;28;20566;-78
2022/10/07 02:04:18;;;;;;;15.27;4.93;;;9.20;99.90;;;;;;4949713;28;20042;-78
2022/10/07 02:07:05;;;;;;;13.45;4.47;;;9.20;99.90;;;;;;4946519;28;20047;-78
2022/10/07 02:10:06;;;;;;;11.40;4.40;;;9.20;99.90;;;;;;4947602;28;20038;-78
2022/10/07 02:12:56;;;;;;;16.10;4.70;;;9.20;99.90;;;;;;4947129;28;20039;-78
2022/10/07 02:15:31;;;;;;;15.45;4.13;;;9.10;99.90;;;;;;4950477;28;20047;-77
2022/10/07 02:18:01;;;;;;;11.10;4.43;;;9.10;99.90;;;;;;4954675;28;20057;-78
2022/10/07 02:20:31;;;;;;;13.40;4.57;;;9.10;99.90;;;;;;4953051;28;20129;-78
2022/10/07 02:22:59;;;;;;;15.60;4.45;;;9.00;99.90;;;;;;4947887;28;20043;-78
2022/10/07 02:25:27;;;;;;;16.05;4.43;;;9.00;99.90;;;;;;4945027;28;20039;-78
2022/10/07 02:27:55;;;;;;;17.10;5.03;;;9.00;99.90;;;;;;4954341;28;20043;-78
2022/10/07 02:30:21;;;;;;;12.57;4.10;;;9.00;99.90;;;;;;4959867;28;20051;-78
2022/10/07 02:32:52;;;;;;;15.93;4.47;;;8.90;99.90;;;;;;4953896;28;20045;-78
2022/10/07 02:35:57;;;;;;;14.05;4.30;;;8.90;99.90;;;;;;4944625;28;20178;-79
2022/10/07 02:38:25;;;;;;;12.73;4.43;;;9.00;99.90;;;;;;4916894;28;20034;-79
2022/10/07 02:41:08;;;;;;;16.45;4.93;;;8.90;99.90;;;;;;4947353;28;20130;-79
2022/10/07 02:43:42;;;;;;;13.70;4.45;;;8.90;99.90;;;;;;4932592;28;20538;-78
2022/10/07 02:46:09;;;;;;;15.32;4.18;;;8.90;99.90;;;;;;4951766;28;20130;-78
2022/10/07 02:48:44;;;;;;;15.00;4.38;;;8.90;99.90;;;;;;4949279;28;20047;-78
2022/10/07 02:51:17;;;;;;;14.82;4.35;;;8.90;99.90;;;;;;4952114;28;20575;-79
2022/10/07 02:53:44;;;;;;;19.40;5.55;;;8.80;99.90;;;;;;4954214;28;20070;-78
2022/10/07 02:56:11;;;;;;;18.35;4.50;;;8.80;99.90;;;;;;4936034;28;20102;-79
2022/10/07 02:58:41;;;;;;;11.35;4.88;;;8.80;99.90;;;;;;4934325;28;20046;-78
2022/10/07 03:01:09;;;;;;;16.48;4.90;;;8.80;99.90;;;;;;4948238;28;20404;-78
2022/10/07 03:03:34;;;;;;;11.93;4.03;;;8.90;99.90;;;;;;4946562;28;20116;-78
2022/10/07 03:06:00;;;;;;;17.77;5.43;;;8.90;99.90;;;;;;4937947;28;20284;-78
2022/10/07 03:08:26;;;;;;;13.90;4.68;;;8.90;99.90;;;;;;4935052;28;20090;-77
2022/10/07 03:10:52;;;;;;;13.35;4.22;;;8.90;99.90;;;;;;4930411;28;20411;-78
2022/10/07 03:13:17;;;;;;;15.20;4.85;;;8.90;99.90;;;;;;4953824;28;20034;-78
2022/10/07 03:15:43;;;;;;;14.77;4.95;;;8.90;99.90;;;;;;4950752;28;20042;-76
2022/10/07 03:18:24;;;;;;;15.07;4.65;;;8.90;99.90;;;;;;4950555;28;20070;-79
2022/10/07 03:20:52;;;;;;;12.82;4.82;;;8.90;99.90;;;;;;4935857;28;20070;-78
2022/10/07 03:23:18;;;;;;;19.10;5.40;;;8.90;99.90;;;;;;4943622;28;20414;-79
2022/10/07 03:25:50;;;;;;;15.30;5.00;;;8.90;99.90;;;;;;4947631;28;20054;-79
2022/10/07 03:28:20;;;;;;;17.30;5.32;;;8.90;99.90;;;;;;4959308;28;20046;-78
2022/10/07 03:30:47;;;;;;;16.42;4.88;;;8.90;99.90;;;;;;4936229;28;20046;-78
2022/10/07 03:33:14;;;;;;;17.33;4.93;;;9.00;99.90;;;;;;4948293;28;20493;-78
2022/10/07 03:35:39;;;;;;;15.45;4.57;;;9.00;99.90;;;;;;4948221;28;20034;-78
2022/10/07 03:38:07;;;;;;;16.02;4.80;;;9.00;99.90;;;;;;4953028;28;20116;-78
2022/10/07 03:40:34;;;;;;;13.18;4.97;;;9.00;99.90;;;;;;4951053;28;20041;-79
2022/10/07 03:43:01;;;;;;;18.70;5.10;;;8.90;99.90;;;;;;4950480;28;20138;-77
2022/10/07 03:45:28;;;;;;;16.88;5.10;;;9.00;99.90;;;;;;4951292;28;20589;-77
2022/10/07 03:47:54;;;;;;;20.90;5.70;;;8.90;99.90;;;;;;4951110;28;20068;-78
2022/10/07 03:50:19;;;;;;;21.13;5.40;;;8.90;99.90;;;;;;4950635;28;20050;-77
2022/10/07 03:52:45;;;;;;;20.48;5.28;;;8.90;99.90;;;;;;4954106;28;20066;-77
2022/10/07 03:55:10;;;;;;;15.77;5.05;;;8.90;99.90;;;;;;4947133;28;20051;-78
2022/10/07 03:57:56;;;;;;;22.70;5.40;;;8.90;99.90;;;;;;4945960;28;20461;-78
2022/10/07 04:00:23;;;;;;;16.58;5.10;;;8.90;99.90;;;;;;4949128;28;20237;-76
2022/10/07 04:02:50;;;;;;;23.02;4.75;;;9.00;99.90;;;;;;4951565;28;20113;-78
2022/10/07 04:05:18;;;;;;;21.33;5.50;;;9.00;99.90;;;;;;4948694;28;20050;-78
2022/10/07 04:07:44;;;;;;;17.48;5.00;;;9.00;99.90;;;;;;4961030;28;20071;-78
2022/10/07 04:10:15;;;;;;;17.23;5.50;;;9.00;99.90;;;;;;4949166;28;21975;-76
2022/10/07 04:12:44;;;;;;;23.23;6.15;;;9.00;99.90;;;;;;4950018;28;20039;-78
2022/10/07 04:15:13;;;;;;;17.83;5.50;;;9.00;99.90;;;;;;4933043;28;20093;-77
2022/10/07 04:17:43;;;;;;;22.45;5.20;;;9.00;99.90;;;;;;4950654;28;20059;-79
2022/10/07 04:20:11;;;;;;;20.02;5.68;;;9.00;99.90;;;;;;4965210;28;20051;-82
2022/10/07 04:22:37;;;;;;;20.45;5.53;;;9.00;99.90;;;;;;4949287;28;20053;-77
2022/10/07 04:27:57;;;;;;;22.70;5.63;;;9.00;99.90;;;;;;4956408;28;20038;-77
2022/10/07 04:30:24;;;;;;;20.95;5.40;;;8.90;99.90;;;;;;4942777;28;20506;-81
2022/10/07 04:32:51;;;;;;;20.75;5.70;;;8.90;99.90;;;;;;4964456;28;20043;-78
2022/10/07 04:35:17;;;;;;;20.77;6.10;;;8.90;99.90;;;;;;4954568;28;20043;-77
2022/10/07 04:37:43;;;;;;;25.05;6.10;;;8.90;99.90;;;;;;4958039;28;20042;-77
2022/10/07 04:40:09;;;;;;;20.08;5.97;;;9.00;99.90;;;;;;4953296;28;20042;-77
2022/10/07 04:45:19;;;;;;;24.48;6.50;;;9.00;99.90;;;;;;4952718;28;20047;-78
2022/10/07 04:47:45;;;;;;;17.02;5.47;;;9.00;99.90;;;;;;4951507;28;20062;-78
2022/10/07 04:50:11;;;;;;;17.10;5.80;;;9.00;99.90;;;;;;4954757;28;20042;-78
2022/10/07 04:52:41;;;;;;;22.15;6.40;;;9.00;99.90;;;;;;4948805;28;20047;-79
2022/10/07 04:55:11;;;;;;;20.48;5.78;;;9.00;99.90;;;;;;4952189;28;20054;-78
2022/10/07 04:57:37;;;;;;;19.52;6.03;;;9.10;99.90;;;;;;4950175;28;20046;-79
2022/10/07 05:00:04;;;;;;;23.52;5.90;;;9.10;99.90;;;;;;4953073;28;20066;-78
2022/10/07 05:02:29;;;;;;;20.73;6.40;;;9.00;99.90;;;;;;4952118;28;20445;-79
2022/10/07 05:04:55;;;;;;;21.88;6.22;;;9.00;99.90;;;;;;4953590;28;20054;-78
2022/10/07 05:07:21;;;;;;;22.60;6.72;;;9.00;99.90;;;;;;4951897;28;20138;-78
2022/10/07 05:09:47;;;;;;;22.77;6.47;;;9.00;99.90;;;;;;4951361;28;20059;-78
2022/10/07 05:12:13;;;;;;;24.48;6.38;;;9.00;99.90;;;;;;4947885;28;20689;-79
2022/10/07 05:14:41;;;;;;;22.90;6.82;;;9.00;99.90;;;;;;4948068;28;20074;-77
2022/10/07 05:17:07;;;;;;;22.40;6.47;;;9.00;99.90;;;;;;4952558;28;20043;-78
2022/10/07 05:19:33;;;;;;;25.85;6.43;;;9.00;99.90;;;;;;4937717;28;20049;-78
2022/10/07 05:21:59;;;;;;;21.27;6.05;;;8.90;99.90;;;;;;4950431;28;20043;-79
2022/10/07 05:24:25;;;;;;;17.27;6.60;;;8.90;99.90;;;;;;4935557;28;20305;-75
2022/10/07 05:26:50;;;;;;;19.70;6.47;;;8.90;99.90;;;;;;4937595;28;20055;-79
2022/10/07 05:29:16;;;;;;;17.30;6.53;;;8.90;99.90;;;;;;4950172;28;20137;-79
2022/10/07 05:31:42;;;;;;;20.60;6.57;;;8.90;99.90;;;;;;4953943;28;20101;-78
2022/10/07 05:34:07;;;;;;;23.02;6.40;;;8.90;99.90;;;;;;4930839;28;20109;-76
2022/10/07 05:36:33;;;;;;;25.80;6.78;;;8.90;99.90;;;;;;4936340;28;20061;-78
2022/10/07 05:38:59;;;;;;;21.88;7.00;;;8.90;99.90;;;;;;4948582;28;20047;-78
2022/10/07 05:41:27;;;;;;;21.75;6.72;;;8.90;99.90;;;;;;4947256;28;20057;-78
2022/10/07 05:43:53;;;;;;;22.95;6.80;;;8.90;99.90;;;;;;4951909;28;20046;-78
2022/10/07 05:46:19;;;;;;;29.83;7.35;;;8.90;99.90;;;;;;4954477;28;20054;-78
2022/10/07 05:48:50;;;;;;;21.33;6.97;;;8.90;99.90;;;;;;4958230;28;20895;-77
2022/10/07 05:51:17;;;;;;;19.55;6.63;;;8.90;99.90;;;;;;4957016;28;20043;-77
2022/10/07 05:53:45;;;;;;;26.52;6.97;;;9.00;99.90;;;;;;4956634;28;20043;-77
2022/10/07 05:56:14;;;;;;;24.10;7.50;;;9.00;99.90;;;;;;4953189;28;20051;-77
2022/10/07 05:58:40;;;;;;;26.65;7.18;;;9.00;99.90;;;;;;4955420;28;20053;-77
2022/10/07 06:01:11;;;;;;;20.80;6.60;;;9.00;99.90;;;;;;4950379;28;20125;-77
2022/10/07 06:03:37;;;;;;;23.58;7.13;;;9.00;99.90;;;;;;4951912;28;20091;-80
2022/10/07 06:06:03;;;;;;;23.15;6.70;;;9.00;99.90;;;;;;4952121;28;20113;-78
2022/10/07 06:08:28;;;;;;;25.35;7.80;;;9.10;99.90;;;;;;4949911;28;20494;-78
2022/10/07 06:13:48;;;;;;;23.88;7.43;;;9.10;99.90;;;;;;4961372;28;20522;-78
2022/10/07 06:16:14;;;;;;;24.60;7.10;;;9.10;99.90;;;;;;4951072;28;20102;-78
2022/10/07 06:18:39;;;;;;;23.17;6.95;;;9.10;99.90;;;;;;4937994;28;20047;-79
2022/10/07 06:21:05;;;;;;;26.15;6.70;;;9.10;99.90;;;;;;4948270;28;20047;-78
2022/10/07 06:23:32;;;;;;;23.05;6.50;;;9.20;99.90;;;;;;4948674;28;20043;-77
2022/10/07 06:26:03;;;;;;;21.95;6.85;;;9.20;99.90;;;;;;4949453;28;20077;-78
2022/10/07 06:28:37;;;;;;;27.80;7.13;;;9.30;99.90;;;;;;4948548;28;20047;-78
2022/10/07 06:31:08;;;;;;;21.17;6.60;;;9.40;99.90;;;;;;4952550;28;20398;-78
2022/10/07 06:33:34;;;;;;;24.58;5.93;;;9.50;99.90;;;;;;4953606;28;20485;-78
2022/10/07 06:36:04;;;;;;;27.10;6.85;;;9.50;99.90;;;;;;4951203;28;20051;-78
2022/10/07 06:38:31;;;;;;;20.60;6.30;;;9.60;99.90;;;;;;4939038;28;20043;-78
2022/10/07 06:40:58;;;;;;;21.95;5.93;;;9.70;99.90;;;;;;4954335;28;20046;-78
2022/10/07 06:43:28;;;;;;;22.20;6.32;;;9.70;99.90;;;;;;4976542;28;20563;-76
2022/10/07 06:46:01;;;;;;;15.85;5.47;;;9.70;99.90;;;;;;4956102;28;20099;-78
2022/10/07 06:48:32;;;;;;;22.05;5.93;;;9.70;99.90;;;;;;4961173;28;20057;-78
2022/10/07 06:50:58;;;;;;;21.42;6.40;;;9.80;99.90;;;;;;4951872;28;20138;-77
2022/10/07 06:53:25;;;;;;;18.67;5.75;;;9.80;99.90;;;;;;4953363;28;20694;-78
2022/10/07 06:55:56;;;;;;;16.58;5.10;;;9.80;99.90;;;;;;4960660;28;20050;-77
2022/10/07 06:58:25;;;;;;;20.25;5.43;;;9.80;99.90;;;;;;4942878;28;20101;-78
2022/10/07 07:00:52;;;;;;;19.73;5.32;;;9.80;99.90;;;;;;4961600;28;20089;-77
2022/10/07 07:03:18;;;;;;;26.83;6.25;;;9.80;99.90;;;;;;4955522;28;20073;-78
2022/10/07 07:05:45;;;;;;;18.70;5.47;;;9.80;99.90;;;;;;4976671;28;20645;-78
2022/10/07 07:08:11;;;;;;;22.83;5.60;;;9.90;99.90;;;;;;4939122;28;20397;-78
2022/10/07 07:10:41;;;;;;;23.45;5.72;;;10.00;99.90;;;;;;4953622;28;20038;-78
2022/10/07 07:13:07;;;;;;;20.65;5.63;;;10.00;99.90;;;;;;4948627;28;20047;-78
2022/10/07 07:15:34;;;;;;;20.67;5.50;;;10.10;99.90;;;;;;4936556;28;20046;-78
2022/10/07 07:18:00;;;;;;;19.40;5.32;;;10.20;99.90;;;;;;4945927;28;20077;-78
2022/10/07 07:20:33;;;;;;;16.67;5.13;;;10.30;99.90;;;;;;4944822;28;20049;-78
2022/10/07 07:23:03;;;;;;;22.33;5.15;;;10.40;99.90;;;;;;4943274;28;20070;-78
2022/10/07 07:25:30;;;;;;;18.63;5.18;;;10.50;99.90;;;;;;4956766;28;20055;-78
2022/10/07 07:27:59;;;;;;;19.50;5.45;;;10.60;99.90;;;;;;4963004;28;20077;-78
2022/10/07 07:30:25;;;;;;;22.40;5.07;;;10.80;99.90;;;;;;4938851;28;20091;-78
2022/10/07 07:32:50;;;;;;;15.55;4.80;;;10.90;99.90;;;;;;4971326;28;20058;-78
2022/10/07 07:35:16;;;;;;;18.02;5.00;;;10.90;99.90;;;;;;4936584;28;20138;-78
2022/10/07 07:37:42;;;;;;;15.25;4.80;;;11.00;99.90;;;;;;4958515;28;20465;-78
2022/10/07 07:40:08;;;;;;;15.93;3.95;;;11.00;99.90;;;;;;4948074;28;20065;-78
2022/10/07 07:42:34;;;;;;;17.52;4.47;;;11.10;99.90;;;;;;4932184;28;20738;-79
2022/10/07 07:45:00;;;;;;;17.48;4.43;;;11.00;99.90;;;;;;4955506;28;20053;-78
2022/10/07 07:47:26;;;;;;;18.33;5.20;;;11.10;99.90;;;;;;4960161;28;20066;-78
2022/10/07 07:49:52;;;;;;;18.17;4.20;;;11.20;99.90;;;;;;4944148;28;20049;-78
2022/10/07 07:52:18;;;;;;;17.73;4.00;;;11.20;99.90;;;;;;4944337;28;20047;-78
2022/10/07 07:54:45;;;;;;;20.33;4.60;;;11.20;99.90;;;;;;4959451;28;20053;-78
2022/10/07 07:57:11;;;;;;;14.55;4.35;;;11.30;99.90;;;;;;4959838;28;20038;-78
2022/10/07 07:59:37;;;;;;;23.08;4.90;;;11.30;99.90;;;;;;4965763;28;20552;-78
2022/10/07 08:02:03;;;;;;;18.92;4.78;;;11.40;99.90;;;;;;4957395;28;20049;-78
2022/10/07 08:04:29;;;;;;;20.80;4.28;;;11.40;99.90;;;;;;4954603;28;20058;-79
2022/10/07 08:06:55;;;;;;;17.27;4.25;;;11.50;99.90;;;;;;4956482;28;20409;-78
2022/10/07 08:09:21;;;;;;;15.63;3.80;;;11.50;99.90;;;;;;4944532;28;20057;-78
2022/10/07 08:11:47;;;;;;;17.33;4.22;;;11.60;99.90;;;;;;4966795;28;20046;-78
2022/10/07 08:14:14;;;;;;;17.83;4.38;;;11.70;99.90;;;;;;4969979;28;20658;-78
2022/10/07 08:16:42;;;;;;;19.25;4.07;;;11.80;99.90;;;;;;4958405;28;20065;-78
2022/10/07 08:19:09;;;;;;;19.27;3.63;;;11.80;99.90;;;;;;4942877;28;20502;-78
2022/10/07 08:21:35;;;;;;;18.50;3.65;;;11.90;99.90;;;;;;4961181;28;20043;-78
2022/10/07 08:24:04;;;;;;;14.77;3.78;;;11.90;99.90;;;;;;4960558;28;20108;-79
2022/10/07 08:26:31;;;;;;;15.50;3.97;;;12.00;99.90;;;;;;4952903;28;20051;-79
2022/10/07 08:28:58;;;;;;;16.45;4.18;;;12.00;99.90;;;;;;4954514;28;20049;-79
2022/10/07 08:31:27;;;;;;;19.23;3.70;;;12.00;99.90;;;;;;4962366;28;20105;-79
2022/10/07 08:33:55;;;;;;;19.13;4.00;;;12.10;99.90;;;;;;4946358;29;20121;-79
2022/10/07 08:36:23;;;;;;;19.80;4.22;;;12.10;99.90;;;;;;4937900;28;20105;-79
2022/10/07 08:38:49;;;;;;;17.05;3.65;;;12.20;99.90;;;;;;4962813;28;20379;-79
2022/10/07 08:41:34;;;;;;;20.35;4.13;;;12.20;99.90;;;;;;4951907;28;20129;-79
2022/10/07 08:44:12;;;;;;;22.27;4.43;;;12.30;99.90;;;;;;4957526;28;20043;-79
2022/10/07 08:46:48;;;;;;;14.68;3.30;;;12.40;99.90;;;;;;4956289;28;20046;-79
2022/10/07 08:49:23;;;;;;;19.52;4.07;;;12.50;99.90;;;;;;4954100;28;20513;-79
2022/10/07 08:51:59;;;;;;;17.30;3.60;;;12.70;99.90;;;;;;4946977;28;20050;-79
2022/10/07 08:54:27;;;;;;;14.98;3.38;;;12.80;99.90;;;;;;4936274;28;20102;-79
2022/10/07 08:56:54;;;;;;;13.27;3.35;;;12.90;99.90;;;;;;4971272;28;20047;-79
2022/10/07 08:59:34;;;;;;;20.10;3.63;;;13.00;99.90;;;;;;4952189;28;20042;-79
2022/10/07 09:02:29;;;;;;;22.10;3.75;;;13.10;99.90;;;;;;4951818;28;20039;-80
2022/10/07 09:05:15;;;;;;;16.50;3.70;;;13.20;99.90;;;;;;4949009;28;20042;-78
2022/10/07 09:07:48;;;;;;;13.73;3.35;;;13.30;99.90;;;;;;4934419;28;20049;-78
2022/10/07 09:10:38;;;;;;;19.13;3.88;;;13.40;99.90;;;;;;4948600;28;20051;-79
2022/10/07 09:13:15;;;;;;;15.90;3.05;;;13.50;99.90;;;;;;4953666;28;20038;-79
2022/10/07 09:15:47;;;;;;;20.85;3.45;;;13.60;99.90;;;;;;4953258;28;20494;-80
2022/10/07 09:18:19;;;;;;;;;;;13.70;99.90;;;;;;4948552;28;20043;-79
2022/10/07 09:20:52;;;;;;;19.10;3.17;;;13.80;99.90;;;;;;4953542;28;19921;-79
2022/10/07 09:23:24;;;;;;;18.25;3.60;;;13.80;99.90;;;;;;4956354;28;20085;-80
2022/10/07 09:25:50;;;;;;;15.30;3.88;;;13.80;99.90;;;;;;4936749;28;20047;-79
2022/10/07 09:28:18;;;;;;;12.88;2.95;;;13.90;99.90;;;;;;4953996;28;20046;-76
2022/10/07 09:30:44;;;;;;;16.27;2.85;;;14.00;99.90;;;;;;4951442;28;20058;-79
2022/10/07 09:33:17;;;;;;;16.35;2.83;;;14.00;99.90;;;;;;4953173;28;20038;-78
2022/10/07 09:35:51;;;;;;;16.83;3.33;;;14.20;99.90;;;;;;4959675;28;20135;-79
2022/10/07 09:38:28;;;;;;;18.60;3.20;;;14.30;99.90;;;;;;4948380;28;20070;-79
2022/10/07 09:41:34;;;;;;;17.15;3.63;;;14.30;99.90;;;;;;4975363;28;20043;-79
2022/10/07 09:44:15;;;;;;;21.95;3.50;;;14.50;99.90;;;;;;4922030;28;20035;-79
2022/10/07 09:46:52;;;;;;;12.73;2.72;;;14.60;99.90;;;;;;4958718;28;20057;-79
2022/10/07 09:49:26;;;;;;;18.38;3.38;;;14.80;99.90;;;;;;4959218;28;20057;-78
2022/10/07 09:51:57;;;;;;;17.30;3.20;;;14.90;99.90;;;;;;4957045;28;20046;-79
2022/10/07 09:54:24;;;;;;;14.63;3.50;;;15.10;99.90;;;;;;4958186;28;20074;-78
2022/10/07 09:56:58;;;;;;;17.80;3.00;;;15.20;99.90;;;;;;4955910;28;20042;-78
2022/10/07 09:59:26;;;;;;;16.83;3.05;;;15.30;99.90;;;;;;4956065;28;20043;-79
2022/10/07 10:02:14;;;;;;;15.77;3.30;;;15.30;99.90;;;;;;4939364;28;20441;-78
2022/10/07 10:04:51;;;;;;;12.82;2.83;;;15.40;99.90;;;;;;4956651;28;20050;-78
2022/10/07 10:07:25;;;;;;;15.07;2.90;;;15.50;99.90;;;;;;4941320;28;20113;-78
2022/10/07 10:09:54;;;;;;;13.88;3.00;;;15.50;99.90;;;;;;4956241;28;20089;-79
2022/10/07 10:12:21;;;;;;;17.35;2.85;;;15.60;99.90;;;;;;4958881;28;20046;-78
2022/10/07 10:14:50;;;;;;;18.17;3.47;;;15.60;99.90;;;;;;4947707;28;20569;-78
2022/10/07 10:17:28;;;;;;;15.27;3.08;;;15.70;99.90;;;;;;4957068;28;20086;-77
2022/10/07 10:20:14;;;;;;;14.57;3.00;;;15.90;99.90;;;;;;4937293;28;20050;-78
2022/10/07 10:22:40;;;;;;;15.38;3.10;;;16.00;99.90;;;;;;4955038;28;21255;-78
2022/10/07 10:28:10;;;;;;;15.43;3.35;;;16.20;99.90;;;;;;4963682;28;20043;-78
2022/10/07 10:30:49;;;;;;;12.15;2.83;;;16.40;99.90;;;;;;4942681;28;20101;-78
2022/10/07 10:33:32;;;;;;;15.93;3.15;;;16.40;99.90;;;;;;4949777;28;20049;-78
2022/10/07 10:36:08;;;;;;;16.80;3.63;;;16.30;99.90;;;;;;4941711;28;20407;-78
2022/10/07 10:38:38;;;;;;;11.07;2.75;;;16.40;99.90;;;;;;4964944;28;20176;-77
2022/10/07 10:41:16;;;;;;;12.95;3.08;;;16.40;99.90;;;;;;4959834;28;20118;-78
2022/10/07 10:43:50;;;;;;;19.50;3.55;;;16.60;99.90;;;;;;4952682;28;20051;-79
2022/10/07 10:46:39;;;;;;;17.02;3.15;;;16.70;99.90;;;;;;4940687;28;20050;-79
2022/10/07 10:49:24;;;;;;;15.48;3.38;;;16.90;99.90;;;;;;4945096;28;20066;-79
2022/10/07 10:51:56;;;;;;;16.25;3.33;;;17.00;99.90;;;;;;4962467;28;20536;-79
2022/10/07 10:54:45;;;;;;;13.27;3.05;;;17.10;99.90;;;;;;4963179;28;24029;-79
2022/10/07 10:57:53;;;;;;;12.18;3.00;;;17.20;99.90;;;;;;4939173;28;20106;-79
2022/10/07 11:00:21;;;;;;;16.92;3.15;;;17.40;99.90;;;;;;4949185;28;20058;-79
2022/10/07 11:03:17;;;;;;;18.20;3.42;;;17.50;99.90;;;;;;4951194;28;20109;-80
2022/10/07 11:05:44;;;;;;;16.30;3.35;;;17.70;99.90;;;;;;4948067;28;20051;-79
2022/10/07 11:08:19;;;;;;;17.33;3.65;;;17.70;99.90;;;;;;4959742;28;20463;-79
2022/10/07 11:10:56;;;;;;;11.73;3.25;;;17.90;99.90;;;;;;4949883;28;20050;-80
2022/10/07 11:13:37;;;;;;;16.65;3.90;;;18.00;99.90;;;;;;4951985;28;20106;-78
2022/10/07 11:16:21;;;;;;;13.82;3.75;;;18.20;99.90;;;;;;4952386;28;20125;-79
2022/10/07 11:19:03;;;;;;;17.08;3.90;;;18.20;99.90;;;;;;4940868;28;20152;-78
2022/10/07 11:21:42;;;;;;;13.35;3.55;;;18.20;99.90;;;;;;4951237;28;20042;-78
2022/10/07 11:24:35;;;;;;;13.27;3.50;;;18.10;99.90;;;;;;4955635;28;20557;-78
2022/10/07 11:27:31;;;;;;;10.63;3.42;;;18.10;99.90;;;;;;4935823;28;20501;-79
2022/10/07 11:30:20;;;;;;;14.60;4.00;;;18.00;99.90;;;;;;4933534;28;20042;-78
2022/10/07 11:33:16;;;;;;;14.70;3.47;;;17.80;99.90;;;;;;4948014;28;20394;-78
2022/10/07 11:35:49;;;;;;;11.13;3.17;;;17.70;99.90;;;;;;4933906;28;20053;-78
2022/10/07 11:38:32;;;;;;;12.25;3.17;;;17.80;99.90;;;;;;4953675;28;20047;-78
2022/10/07 11:41:05;;;;;;;17.35;3.60;;;17.90;99.90;;;;;;4944596;28;20050;-79
2022/10/07 11:43:39;;;;;;;18.85;3.75;;;18.20;99.90;;;;;;4936926;28;20085;-79
2022/10/07 11:46:19;;;;;;;12.57;3.40;;;18.30;99.90;;;;;;4941614;28;20047;-82
2022/10/07 11:48:57;;;;;;;14.93;3.05;;;18.60;99.90;;;;;;4960972;28;20054;-79
2022/10/07 11:51:58;;;;;;;15.00;3.30;;;18.70;99.90;;;;;;4954245;28;20047;-79
2022/10/07 11:54:27;;;;;;;15.75;2.80;;;18.90;99.90;;;;;;4937544;28;20050;-79
2022/10/07 11:56:59;;;;;;;12.00;2.63;;;18.80;99.90;;;;;;4962718;28;20098;-78
2022/10/07 11:59:37;;;;;;;20.03;3.57;;;18.30;99.90;;;;;;4957007;28;20046;-78
2022/10/07 12:02:03;;;;;;;16.98;3.58;;;18.30;99.90;;;;;;4936627;28;20309;-78
2022/10/07 12:04:29;;;;;;;16.08;3.53;;;18.20;99.90;;;;;;4957397;28;20042;-79
2022/10/07 12:07:31;;;;;;;13.88;3.10;;;18.20;99.90;;;;;;4961505;28;20545;-78
2022/10/07 12:10:06;;;;;;;;;;;18.20;99.90;;;;;;4958487;28;20054;-79
2022/10/07 12:12:41;;;;;;;14.95;3.05;;;18.00;99.90;;;;;;4979290;28;20112;-78
2022/10/07 12:15:33;;;;;;;12.13;2.85;;;17.70;99.90;;;;;;4958645;28;20049;-78
2022/10/07 12:18:05;;;;;;;12.98;3.17;;;17.60;99.90;;;;;;4936794;28;20051;-78
2022/10/07 12:20:33;;;;;;;16.48;3.33;;;17.60;99.90;;;;;;4952874;28;20129;-77
2022/10/07 12:23:17;;;;;;;17.13;3.08;;;17.60;99.90;;;;;;4955998;28;20043;-79
2022/10/07 12:25:47;;;;;;;9.63;2.65;;;17.60;99.90;;;;;;4948565;28;20494;-79
2022/10/07 12:28:20;;;;;;;14.52;3.17;;;17.60;99.90;;;;;;4962857;28;20043;-79
2022/10/07 12:31:00;;;;;;;11.85;2.80;;;17.70;99.90;;;;;;4947795;28;20074;-79
2022/10/07 12:33:42;;;;;;;11.55;3.17;;;17.70;99.90;;;;;;4935949;28;20038;-79
2022/10/07 12:36:28;;;;;;;15.48;2.80;;;17.70;99.90;;;;;;4949387;28;20164;-79
2022/10/07 12:38:58;;;;;;;11.85;2.42;;;17.80;99.90;;;;;;4969944;28;20039;-79
2022/10/07 12:41:24;;;;;;;13.05;2.53;;;17.90;99.90;;;;;;4957030;28;20043;-80
2022/10/07 12:44:05;;;;;;;9.68;2.03;;;17.80;99.90;;;;;;4969937;28;20047;-79
2022/10/07 12:46:36;;;;;;;11.23;2.63;;;17.80;99.90;;;;;;4957485;28;20049;-80
2022/10/07 12:49:29;;;;;;;11.32;2.13;;;17.70;99.90;;;;;;4961032;28;20051;-80
2022/10/07 12:51:59;;;;;;;12.85;2.67;;;17.80;99.90;;;;;;4959639;28;20053;-80
2022/10/07 12:54:37;;;;;;;13.40;2.50;;;17.90;99.90;;;;;;4963963;28;20557;-79
2022/10/07 12:57:11;;;;;;;11.20;2.80;;;18.00;99.90;;;;;;4962374;28;20043;-80
2022/10/07 12:59:51;;;;;;;9.90;2.53;;;18.00;99.90;;;;;;4938635;28;20061;-79
2022/10/07 13:02:35;;;;;;;8.35;2.05;;;18.00;99.90;;;;;;4959974;28;20197;-80
2022/10/07 13:05:38;;;;;;;10.18;2.47;;;17.80;99.90;;;;;;4963131;28;20050;-80
2022/10/07 13:08:48;;;;;;;11.10;2.28;;;17.80;99.90;;;;;;4941970;28;20501;-80
2022/10/07 13:11:39;;;;;;;11.40;2.70;;;17.70;99.90;;;;;;4943723;28;20054;-80
2022/10/07 13:14:29;;;;;;;12.35;2.85;;;17.50;99.90;;;;;;4963291;28;20046;-80
2022/10/07 13:17:05;;;;;;;10.88;2.20;;;17.50;99.90;;;;;;4980434;28;20043;-79
2022/10/07 13:19:49;;;;;;;10.88;2.80;;;17.40;99.90;;;;;;4974013;28;20049;-80
2022/10/07 13:22:17;;;;;;;11.98;2.30;;;17.50;99.90;;;;;;4961722;28;20054;-79